Time;durP1;ratioP1;P1;durP2;ratioP2;P2;SDS_P1;SDS_P2;PMS_P1;PMS_P2;Temp;Humidity;BMP_temperature;BMP_pressure;BME280_temperature;BME280_humidity;BME280_pressure;Samples;Min_cycle;Max_cycle;Signal;HPM_P1;HPM_P2
2022/07/03 00:01:57;;;;;;;0.40;0.20;;;;;;;17.24;90.01;100340.88;5026616;28;20559;-54
2022/07/03 00:04:24;;;;;;;0.40;0.20;;;;;;;16.95;90.35;100332.59;5024783;28;20499;-54
2022/07/03 00:06:53;;;;;;;0.40;0.20;;;;;;;17.03;90.56;100329.53;5019904;28;20447;-54
2022/07/03 00:09:20;;;;;;;0.40;0.20;;;;;;;17.02;90.83;100333.16;5022044;28;20983;-54
2022/07/03 00:11:46;;;;;;;0.40;0.20;;;;;;;17.10;90.39;100326.41;5026825;28;20532;-54
2022/07/03 00:14:13;;;;;;;0.40;0.20;;;;;;;16.82;91.19;100331.53;5025624;28;20471;-54
2022/07/03 00:16:39;;;;;;;0.40;0.20;;;;;;;16.90;91.57;100323.94;5019809;28;20944;-54
2022/07/03 00:19:07;;;;;;;0.40;0.20;;;;;;;17.06;90.54;100324.84;5020969;28;20853;-53
2022/07/03 00:21:55;;;;;;;0.40;0.20;;;;;;;17.01;90.98;100329.59;5026294;28;20949;-54
2022/07/03 00:24:50;;;;;;;0.40;0.20;;;;;;;17.18;89.92;100332.22;5026256;28;21011;-54
2022/07/03 00:27:19;;;;;;;0.40;0.20;;;;;;;17.03;90.61;100329.53;5025703;28;20455;-53
2022/07/03 00:29:48;;;;;;;0.40;0.20;;;;;;;17.02;90.12;100327.78;5002408;28;20458;-54
2022/07/03 00:32:22;;;;;;;0.40;0.20;;;;;;;16.93;91.08;100330.97;5026338;28;20451;-54
2022/07/03 00:34:51;;;;;;;0.40;0.20;;;;;;;16.89;90.59;100332.94;5020870;28;20483;-54
2022/07/03 00:37:18;;;;;;;0.40;0.20;;;;;;;16.64;91.68;100332.50;5019338;28;20895;-54
2022/07/03 00:39:44;;;;;;;0.40;0.20;;;;;;;16.49;92.57;100339.53;5032458;28;20483;-54
2022/07/03 00:42:12;;;;;;;0.40;0.20;;;;;;;16.40;93.57;100340.00;5030962;28;20454;-54
2022/07/03 00:44:46;;;;;;;0.40;0.20;;;;;;;16.49;92.62;100336.84;5021030;28;20562;-53
2022/07/03 00:47:13;;;;;;;0.40;0.20;;;;;;;16.57;92.48;100343.53;5019589;28;20456;-54
2022/07/03 00:49:44;;;;;;;0.40;0.20;;;;;;;16.54;92.59;100335.66;5022936;28;20444;-54
2022/07/03 00:52:13;;;;;;;0.40;0.20;;;;;;;16.31;94.36;100333.31;5026182;28;20449;-54
2022/07/03 00:54:44;;;;;;;0.40;0.20;;;;;;;16.39;93.50;100330.22;5023671;28;20988;-54
2022/07/03 00:57:15;;;;;;;0.40;0.20;;;;;;;16.36;94.76;100333.06;5019069;28;20486;-54
2022/07/03 00:59:43;;;;;;;0.40;0.20;;;;;;;16.12;95.28;100332.50;5020012;28;20806;-53
2022/07/03 01:02:22;;;;;;;0.40;0.20;;;;;;;16.12;95.60;100336.03;5025857;28;20531;-54
2022/07/03 01:04:59;;;;;;;0.40;0.20;;;;;;;16.28;94.67;100333.44;5025785;28;20467;-54
2022/07/03 01:07:36;;;;;;;0.40;0.20;;;;;;;16.23;95.68;100328.31;5022200;28;20455;-54
2022/07/03 01:10:25;;;;;;;0.40;0.20;;;;;;;16.00;96.85;100323.25;5019253;28;20439;-54
2022/07/03 01:13:04;;;;;;;0.40;0.20;;;;;;;16.23;96.70;100324.78;4989238;28;20456;-54
2022/07/03 01:15:52;;;;;;;0.40;0.20;;;;;;;16.17;96.08;100322.38;5022867;28;20551;-53
2022/07/03 01:18:35;;;;;;;0.40;0.20;;;;;;;16.27;96.04;100319.16;5025946;28;20444;-53
2022/07/03 01:21:15;;;;;;;0.40;0.20;;;;;;;16.29;95.39;100309.22;5025622;28;20495;-54
2022/07/03 01:24:03;;;;;;;0.40;0.20;;;;;;;16.18;95.24;100308.94;5021337;28;20448;-54
2022/07/03 01:26:35;;;;;;;0.40;0.20;;;;;;;16.27;95.05;100305.75;5019043;28;20444;-54
2022/07/03 01:29:13;;;;;;;0.40;0.20;;;;;;;16.05;95.78;100296.22;5019114;28;20445;-53
2022/07/03 01:31:42;;;;;;;0.40;0.20;;;;;;;16.15;94.97;100298.34;5021472;28;20450;-53
2022/07/03 01:34:14;;;;;;;0.40;0.20;;;;;;;15.98;95.78;100299.19;5019396;28;20519;-53
2022/07/03 01:36:43;;;;;;;0.40;0.20;;;;;;;15.90;96.08;100288.03;5022277;28;20455;-53
2022/07/03 01:39:11;;;;;;;0.40;0.30;;;;;;;16.00;95.74;100297.31;5029224;28;20440;-53
2022/07/03 01:41:40;;;;;;;0.40;0.20;;;;;;;16.05;95.26;100299.78;5032255;28;20443;-54
2022/07/03 01:44:09;;;;;;;0.40;0.20;;;;;;;16.03;95.66;100307.00;5018798;28;20590;-54
2022/07/03 01:46:36;;;;;;;0.40;0.20;;;;;;;16.12;94.59;100305.69;5020503;28;20949;-53
2022/07/03 01:49:06;;;;;;;0.40;0.20;;;;;;;15.98;95.27;100311.75;5028244;28;20946;-53
2022/07/03 01:51:34;;;;;;;0.40;0.20;;;;;;;15.85;96.26;100318.66;5028570;28;20455;-53
2022/07/03 01:54:02;;;;;;;0.40;0.20;;;;;;;15.70;96.81;100318.47;5022475;28;20474;-54
2022/07/03 01:56:32;;;;;;;0.40;0.20;;;;;;;15.69;96.89;100315.88;5023260;28;20455;-54
2022/07/03 01:58:59;;;;;;;0.40;0.20;;;;;;;15.77;96.45;100315.50;5029514;28;20451;-54
2022/07/03 02:01:33;;;;;;;0.40;0.20;;;;;;;15.66;96.75;100306.19;5028853;28;20578;-54
2022/07/03 02:04:09;;;;;;;0.40;0.20;;;;;;;15.84;96.23;100304.41;5024080;28;20568;-54
2022/07/03 02:06:36;;;;;;;0.40;0.20;;;;;;;15.52;97.53;100305.97;5022483;28;20452;-53
2022/07/03 02:09:07;;;;;;;0.40;0.20;;;;;;;15.62;98.17;100309.97;5026139;28;20934;-53
2022/07/03 02:11:51;;;;;;;0.40;0.20;;;;;;;15.51;98.22;100303.34;5029085;28;20522;-53
2022/07/03 02:14:24;;;;;;;0.40;0.20;;;;;;;15.61;97.62;100300.16;5028487;28;20474;-54
2022/07/03 02:17:20;;;;;;;0.40;0.20;;;;;;;15.56;97.54;100304.84;5028672;28;21064;-54
2022/07/03 02:19:59;;;;;;;0.40;0.20;;;;;;;15.40;98.42;100304.75;5028770;28;20498;-53
2022/07/03 02:22:39;;;;;;;0.40;0.20;;;;;;;15.28;98.43;100309.81;5027283;28;20936;-54
2022/07/03 02:25:08;;;;;;;0.40;0.20;;;;;;;15.43;98.04;100302.84;5027500;28;20472;-54
2022/07/03 02:27:43;;;;;;;0.40;0.20;;;;;;;15.32;98.37;100301.53;5028891;28;20470;-53
2022/07/03 02:30:11;;;;;;;0.40;0.20;;;;;;;15.32;98.68;100306.91;5018163;28;20448;-54
2022/07/03 02:33:00;;;;;;;0.40;0.20;;;;;;;15.27;98.95;100308.06;5028669;28;20544;-53
2022/07/03 02:35:32;;;;;;;0.40;0.20;;;;;;;15.21;98.88;100306.53;5028525;28;20831;-53
2022/07/03 02:38:07;;;;;;;0.40;0.20;;;;;;;15.24;98.98;100305.56;5026707;28;20458;-53
2022/07/03 02:40:40;;;;;;;0.40;0.20;;;;;;;15.20;99.04;100311.97;5030455;28;20489;-53
2022/07/03 02:43:37;;;;;;;0.40;0.20;;;;;;;15.24;98.87;100311.78;5025856;28;20972;-53
2022/07/03 02:46:49;;;;;;;0.40;0.20;;;;;;;15.36;98.29;100307.66;5019821;28;20811;-53
2022/07/03 02:49:19;;;;;;;0.40;0.20;;;;;;;15.35;97.26;100305.88;5028726;28;20468;-53
2022/07/03 02:51:53;;;;;;;0.40;0.20;;;;;;;15.11;98.44;100308.81;5028064;28;20455;-53
2022/07/03 02:54:20;;;;;;;0.40;0.20;;;;;;;15.26;98.75;100304.53;5023154;28;20464;-54
2022/07/03 02:57:07;;;;;;;0.40;0.20;;;;;;;15.13;98.55;100302.50;5021303;28;20455;-53
2022/07/03 02:59:50;;;;;;;0.40;0.20;;;;;;;15.11;98.83;100305.25;5023415;28;20498;-53
2022/07/03 03:02:35;;;;;;;0.40;0.20;;;;;;;14.95;99.45;100305.09;5028413;28;20456;-53
2022/07/03 03:05:09;;;;;;;0.40;0.20;;;;;;;15.01;99.59;100315.53;5027845;28;20972;-54
2022/07/03 03:07:52;;;;;;;0.40;0.20;;;;;;;15.01;99.82;100320.88;5025414;28;20455;-53
2022/07/03 03:10:20;;;;;;;0.40;0.20;;;;;;;15.03;99.62;100336.88;5021130;28;20448;-54
2022/07/03 03:12:53;;;;;;;0.40;0.20;;;;;;;15.07;98.70;100325.06;5021741;28;20453;-53
2022/07/03 03:15:24;;;;;;;0.40;0.20;;;;;;;15.05;99.39;100330.50;5010732;28;20551;-53
2022/07/03 03:17:55;;;;;;;0.40;0.20;;;;;;;15.17;98.16;100329.06;5021024;28;20469;-53
2022/07/03 03:20:26;;;;;;;0.40;0.20;;;;;;;14.99;99.30;100336.16;5025618;28;20488;-54
2022/07/03 03:23:08;;;;;;;0.40;0.20;;;;;;;15.01;99.78;100333.38;5027831;28;20956;-53
2022/07/03 03:25:36;;;;;;;0.40;0.20;;;;;;;14.96;99.76;100338.97;5026139;28;20478;-54
2022/07/03 03:28:03;;;;;;;0.40;0.20;;;;;;;14.99;100.00;100336.16;5021184;28;20444;-53
2022/07/03 03:30:30;;;;;;;0.53;0.53;;;;;;;14.85;100.00;100345.75;5021800;28;20447;-53
2022/07/03 03:32:57;;;;;;;0.40;0.20;;;;;;;14.92;100.00;100341.84;5027455;28;20459;-53
2022/07/03 03:35:23;;;;;;;0.40;0.20;;;;;;;14.97;99.40;100342.50;5026538;28;20480;-53
2022/07/03 03:37:50;;;;;;;0.40;0.20;;;;;;;14.93;100.00;100349.78;5020684;28;20817;-53
2022/07/03 03:40:17;;;;;;;0.30;0.20;;;;;;;14.72;100.00;100348.97;5021396;28;20491;-54
2022/07/03 03:42:44;;;;;;;0.40;0.20;;;;;;;14.89;100.00;100350.00;5027345;28;20527;-53
2022/07/03 03:45:10;;;;;;;0.40;0.20;;;;;;;14.90;100.00;100349.06;5027073;28;20472;-53
2022/07/03 03:47:37;;;;;;;0.40;0.20;;;;;;;14.97;99.80;100351.41;5022711;28;20565;-53
2022/07/03 03:50:04;;;;;;;0.40;0.20;;;;;;;14.91;100.00;100350.81;5020674;28;20459;-53
2022/07/03 03:52:32;;;;;;;0.40;0.20;;;;;;;14.81;100.00;100353.06;5026939;28;20963;-53
2022/07/03 03:54:58;;;;;;;0.40;0.20;;;;;;;14.81;100.00;100350.38;5027191;28;20836;-53
2022/07/03 03:57:26;;;;;;;0.40;0.20;;;;;;;14.83;100.00;100361.88;5021075;28;20458;-53
2022/07/03 03:59:55;;;;;;;0.40;0.20;;;;;;;14.80;100.00;100360.22;5020087;28;20453;-53
2022/07/03 04:02:22;;;;;;;0.40;0.20;;;;;;;14.84;100.00;100360.94;5025903;28;20761;-53
2022/07/03 04:04:48;;;;;;;0.40;0.20;;;;;;;14.97;100.00;100353.22;5026734;28;20481;-53
2022/07/03 04:07:15;;;;;;;0.40;0.20;;;;;;;15.01;100.00;100355.69;5021444;28;20944;-53
2022/07/03 04:09:41;;;;;;;0.37;0.20;;;;;;;15.17;100.00;100354.97;5019965;28;20449;-53
2022/07/03 04:12:09;;;;;;;0.40;0.20;;;;;;;15.16;100.00;100355.91;5025106;28;20445;-54
2022/07/03 04:14:35;;;;;;;0.40;0.20;;;;;;;15.35;100.00;100362.13;5026555;28;20996;-54
2022/07/03 04:17:02;;;;;;;0.40;0.20;;;;;;;15.59;100.00;100368.16;5021509;28;20444;-54
2022/07/03 04:19:29;;;;;;;0.40;0.20;;;;;;;15.65;99.50;100365.22;5019692;28;20452;-54
2022/07/03 04:21:56;;;;;;;0.40;0.20;;;;;;;15.46;100.00;100361.63;5024656;28;20491;-54
2022/07/03 04:24:23;;;;;;;0.40;0.20;;;;;;;15.59;100.00;100373.50;5026627;28;20473;-53
2022/07/03 04:26:49;;;;;;;0.40;0.20;;;;;;;15.78;100.00;100368.19;5022018;28;20456;-54
2022/07/03 04:29:15;;;;;;;0.40;0.20;;;;;;;15.92;99.74;100374.59;5019694;28;20453;-53
2022/07/03 04:31:42;;;;;;;0.30;0.20;;;;;;;15.89;99.93;100365.81;5021824;28;20454;-54
2022/07/03 04:34:08;;;;;;;0.40;0.20;;;;;;;16.58;97.43;100358.72;5019282;28;20476;-54
2022/07/03 04:36:35;;;;;;;0.40;0.20;;;;;;;17.58;93.25;100361.38;5024206;28;20449;-54
2022/07/03 04:39:01;;;;;;;0.40;0.20;;;;;;;18.16;89.76;100350.00;5028412;28;20531;-54
2022/07/03 04:41:28;;;;;;;0.50;0.20;;;;;;;18.57;87.42;100355.59;5023842;28;20539;-54
2022/07/03 04:43:54;;;;;;;0.40;0.20;;;;;;;19.06;85.63;100360.69;5025939;28;20468;-54
2022/07/03 04:46:21;;;;;;;0.40;0.20;;;;;;;19.74;81.60;100358.16;5011576;28;20647;-54
2022/07/03 04:48:48;;;;;;;0.40;0.20;;;;;;;20.18;79.67;100352.50;5011039;28;20510;-54
2022/07/03 04:51:14;;;;;;;0.40;0.20;;;;;;;20.63;77.28;100353.91;5006559;28;20453;-54
2022/07/03 04:53:41;;;;;;;0.40;0.20;;;;;;;20.76;75.67;100361.16;5013804;28;20550;-54
2022/07/03 04:56:07;;;;;;;0.40;0.20;;;;;;;21.17;73.82;100363.66;5022876;28;20461;-54
2022/07/03 04:58:34;;;;;;;0.40;0.20;;;;;;;20.65;74.94;100364.59;5025915;28;20938;-54
2022/07/03 05:01:00;;;;;;;0.40;0.30;;;;;;;21.26;73.32;100366.59;5022118;28;20520;-54
2022/07/03 05:03:27;;;;;;;0.40;0.20;;;;;;;21.21;73.92;100378.69;5015078;28;20483;-54
2022/07/03 05:05:53;;;;;;;0.40;0.20;;;;;;;21.67;72.19;100378.09;5005052;28;20957;-54
2022/07/03 05:08:20;;;;;;;0.40;0.20;;;;;;;22.16;70.64;100381.63;5026058;28;20472;-54
2022/07/03 05:10:46;;;;;;;0.40;0.20;;;;;;;21.89;70.47;100376.41;5021969;28;20443;-54
2022/07/03 05:13:13;;;;;;;0.40;0.20;;;;;;;21.93;70.52;100382.47;5019238;28;20447;-54
2022/07/03 05:15:39;;;;;;;0.40;0.20;;;;;;;22.28;68.65;100381.69;5022643;28;20473;-54
2022/07/03 05:18:06;;;;;;;0.40;0.30;;;;;;;22.47;68.74;100380.16;5025743;28;20444;-55
2022/07/03 05:20:32;;;;;;;0.40;0.20;;;;;;;22.44;68.00;100383.09;5022542;28;20506;-54
2022/07/03 05:23:01;;;;;;;0.40;0.20;;;;;;;22.55;69.01;100384.13;5027731;28;20455;-55
2022/07/03 05:25:31;;;;;;;0.40;0.20;;;;;;;23.86;64.43;100382.69;5022992;28;20562;-54
2022/07/03 05:27:58;;;;;;;0.50;0.30;;;;;;;22.90;66.61;100385.00;5018857;28;20448;-55
2022/07/03 05:30:26;;;;;;;0.40;0.20;;;;;;;23.34;65.45;100388.75;5020910;28;20457;-54
2022/07/03 05:32:53;;;;;;;0.40;0.20;;;;;;;23.39;66.00;100388.38;5025559;28;20538;-55
2022/07/03 05:35:20;;;;;;;0.40;0.20;;;;;;;23.01;66.36;100378.72;5024142;28;20483;-54
2022/07/03 05:37:47;;;;;;;0.40;0.20;;;;;;;23.17;66.68;100379.25;5018557;28;20448;-55
2022/07/03 05:40:13;;;;;;;0.73;0.73;;;;;;;23.38;65.25;100384.78;5031781;28;20444;-55
2022/07/03 05:42:40;;;;;;;0.40;0.20;;;;;;;23.24;65.34;100379.63;5025978;28;20459;-55
2022/07/03 05:45:07;;;;;;;0.40;0.20;;;;;;;23.48;65.07;100380.38;5024367;28;20475;-55
2022/07/03 05:47:33;;;;;;;0.40;0.20;;;;;;;23.86;63.98;100382.69;5018435;28;20459;-55
2022/07/03 05:50:01;;;;;;;0.40;0.20;;;;;;;23.51;65.75;100385.53;5019025;28;20980;-55
2022/07/03 05:52:27;;;;;;;0.40;0.20;;;;;;;23.53;65.10;100390.84;5024220;28;20820;-55
2022/07/03 05:54:54;;;;;;;0.40;0.30;;;;;;;23.70;64.53;100384.06;5018884;28;20475;-55
2022/07/03 05:57:21;;;;;;;0.40;0.20;;;;;;;23.94;64.67;100393.78;5025228;28;20448;-55
2022/07/03 05:59:47;;;;;;;0.40;0.20;;;;;;;23.80;64.95;100396.75;5025203;28;20462;-55
2022/07/03 06:02:14;;;;;;;0.40;0.20;;;;;;;23.62;65.15;100392.84;5005202;28;21008;-55
2022/07/03 06:04:41;;;;;;;0.40;0.20;;;;;;;24.18;63.27;100395.44;5018715;28;21020;-55
2022/07/03 06:07:07;;;;;;;0.40;0.20;;;;;;;24.11;62.39;100394.22;5025152;28;20459;-54
2022/07/03 06:09:34;;;;;;;0.40;0.20;;;;;;;23.98;63.11;100394.38;5024982;28;20462;-55
2022/07/03 06:12:00;;;;;;;0.40;0.20;;;;;;;24.25;62.46;100393.94;5005068;28;20817;-54
2022/07/03 06:14:26;;;;;;;0.40;0.20;;;;;;;23.88;63.61;100390.72;5018903;28;20476;-55
2022/07/03 06:16:53;;;;;;;0.40;0.20;;;;;;;24.05;63.63;100386.59;5025235;28;20454;-55
2022/07/03 06:19:19;;;;;;;0.40;0.20;;;;;;;23.92;61.51;100386.75;5025033;28;21010;-55
2022/07/03 06:21:46;;;;;;;0.40;0.20;;;;;;;24.17;62.28;100388.28;5006785;28;20488;-55
2022/07/03 06:24:12;;;;;;;0.40;0.20;;;;;;;24.14;62.41;100384.00;5018084;28;20480;-55
2022/07/03 06:26:39;;;;;;;0.40;0.20;;;;;;;23.94;62.52;100388.34;5025040;28;20453;-55
2022/07/03 06:29:05;;;;;;;0.40;0.20;;;;;;;24.27;61.50;100389.25;5025759;28;20452;-55
2022/07/03 06:31:32;;;;;;;0.40;0.30;;;;;;;24.51;60.33;100389.03;5019092;28;20538;-55
2022/07/03 06:33:58;;;;;;;0.40;0.20;;;;;;;24.91;59.51;100383.75;5019351;28;20478;-54
2022/07/03 06:36:25;;;;;;;0.40;0.20;;;;;;;24.89;60.26;100383.03;5028088;28;20457;-55
2022/07/03 06:38:51;;;;;;;0.40;0.20;;;;;;;24.63;60.84;100388.00;5028776;28;20799;-55
2022/07/03 06:41:17;;;;;;;0.40;0.20;;;;;;;24.94;60.52;100390.78;5035183;28;20487;-55
2022/07/03 06:43:44;;;;;;;0.40;0.20;;;;;;;25.01;60.06;100392.03;5021495;28;20449;-55
2022/07/03 06:46:10;;;;;;;0.50;0.30;;;;;;;25.30;59.26;100389.47;5027587;28;20456;-55
2022/07/03 06:48:37;;;;;;;0.40;0.20;;;;;;;25.10;59.08;100381.22;5028426;28;20581;-55
2022/07/03 06:51:03;;;;;;;0.40;0.20;;;;;;;25.59;58.39;100386.88;5020463;28;20455;-55
2022/07/03 06:53:30;;;;;;;0.40;0.20;;;;;;;25.03;59.71;100382.72;5028106;28;20440;-55
2022/07/03 06:55:56;;;;;;;0.40;0.20;;;;;;;24.73;60.21;100398.97;5022638;28;20451;-55
2022/07/03 06:58:23;;;;;;;0.40;0.20;;;;;;;25.10;60.22;100394.81;5021523;28;20544;-55
2022/07/03 07:00:49;;;;;;;0.40;0.30;;;;;;;25.05;59.79;100396.19;5027066;28;20500;-55
2022/07/03 07:03:16;;;;;;;0.40;0.30;;;;;;;25.46;59.64;100384.38;5028085;28;20543;-55
2022/07/03 07:05:42;;;;;;;0.40;0.20;;;;;;;25.32;58.67;100398.34;5022850;28;20475;-55
2022/07/03 07:08:08;;;;;;;0.40;0.20;;;;;;;25.42;59.21;100395.69;5021121;28;20973;-55
2022/07/03 07:10:35;;;;;;;0.40;0.30;;;;;;;25.47;59.05;100399.72;5026386;28;20977;-55
2022/07/03 07:13:01;;;;;;;0.40;0.20;;;;;;;25.54;58.77;100395.44;5027757;28;20452;-55
2022/07/03 07:15:28;;;;;;;0.40;0.20;;;;;;;25.88;58.71;100395.16;5023074;28;20479;-55
2022/07/03 07:17:54;;;;;;;0.40;0.20;;;;;;;25.00;60.96;100391.16;5021148;28;20452;-55
2022/07/03 07:20:21;;;;;;;0.40;0.20;;;;;;;25.62;59.33;100387.44;5025443;28;20449;-55
2022/07/03 07:22:47;;;;;;;0.40;0.20;;;;;;;26.12;57.54;100392.06;5027687;28;20484;-55
2022/07/03 07:25:13;;;;;;;0.40;0.20;;;;;;;26.22;57.40;100393.81;5023110;28;20479;-55
2022/07/03 07:27:40;;;;;;;0.40;0.20;;;;;;;26.62;56.37;100392.00;5020542;28;20980;-55
2022/07/03 07:30:07;;;;;;;0.40;0.20;;;;;;;26.39;56.05;100394.13;5025512;28;20463;-55
2022/07/03 07:32:34;;;;;;;0.40;0.20;;;;;;;26.69;55.46;100385.78;5027276;28;20447;-55
2022/07/03 07:35:00;;;;;;;0.40;0.30;;;;;;;26.92;55.03;100380.88;5023696;28;20494;-55
2022/07/03 07:37:27;;;;;;;0.40;0.20;;;;;;;27.13;55.21;100377.97;5019611;28;20448;-55
2022/07/03 07:39:53;;;;;;;0.40;0.30;;;;;;;26.19;56.16;100376.88;5034184;28;20444;-55
2022/07/03 07:42:19;;;;;;;0.40;0.20;;;;;;;26.64;55.18;100377.19;5030657;28;21035;-55
2022/07/03 07:44:46;;;;;;;0.40;0.20;;;;;;;26.34;56.55;100369.13;5022888;28;20464;-56
2022/07/03 07:47:12;;;;;;;0.40;0.20;;;;;;;26.61;55.66;100380.22;5019611;28;20457;-54
2022/07/03 07:49:39;;;;;;;0.40;0.20;;;;;;;26.80;55.21;100376.59;5024168;28;20452;-54
2022/07/03 07:52:06;;;;;;;0.40;0.20;;;;;;;26.90;56.09;100374.72;5022410;28;20448;-54
2022/07/03 07:54:32;;;;;;;0.40;0.20;;;;;;;27.26;52.90;100373.06;5023800;28;20477;-54
2022/07/03 07:56:59;;;;;;;0.40;0.30;;;;;;;27.14;53.71;100372.41;5027095;28;20946;-55
2022/07/03 07:59:25;;;;;;;2.50;2.40;;;;;;;27.26;53.14;100370.31;5023822;28;20433;-55
2022/07/03 08:07:21;;;;;;;0.40;0.30;;;;;;;27.28;53.86;100370.19;5011257;28;20444;-55
2022/07/03 08:09:48;;;;;;;0.40;0.20;;;;;;;27.25;53.63;100371.34;5019978;28;20969;-55
2022/07/03 08:12:14;;;;;;;0.40;0.20;;;;;;;27.71;51.73;100367.72;5025032;28;20789;-55
2022/07/03 08:14:41;;;;;;;0.40;0.30;;;;;;;27.61;51.64;100366.03;5026510;28;20478;-55
2022/07/03 08:17:07;;;;;;;0.40;0.20;;;;;;;28.40;49.79;100363.53;5022774;28;20448;-55
2022/07/03 08:19:34;;;;;;;0.40;0.20;;;;;;;28.74;49.34;100363.66;5019949;28;20448;-55
2022/07/03 08:22:01;;;;;;;0.40;0.20;;;;;;;28.27;48.84;100363.09;5032687;28;20480;-55
2022/07/03 08:24:27;;;;;;;0.40;0.20;;;;;;;27.99;47.87;100365.84;5019813;28;20467;-55
2022/07/03 08:26:54;;;;;;;0.40;0.23;;;;;;;27.92;47.95;100361.13;5023171;28;20456;-55
2022/07/03 08:29:20;;;;;;;0.43;0.30;;;;;;;28.35;48.82;100363.13;5026220;28;20448;-55
2022/07/03 08:31:47;;;;;;;0.40;0.20;;;;;;;28.97;46.85;100357.72;5023118;28;20439;-55
2022/07/03 08:34:13;;;;;;;0.40;0.20;;;;;;;29.30;46.24;100359.59;5019255;28;20478;-55
2022/07/03 08:36:41;;;;;;;0.40;0.30;;;;;;;29.13;45.75;100360.53;5022921;28;20463;-55
2022/07/03 08:39:09;;;;;;;0.40;0.30;;;;;;;29.06;46.12;100368.56;5029347;28;20824;-55
2022/07/03 08:41:42;;;;;;;0.40;0.30;;;;;;;29.19;43.17;100354.41;5032663;28;20493;-55
2022/07/03 08:44:11;;;;;;;0.40;0.30;;;;;;;29.10;44.51;100360.88;5019386;28;20468;-55
2022/07/03 08:46:38;;;;;;;0.40;0.30;;;;;;;29.72;42.34;100361.53;5021267;28;20503;-55
2022/07/03 08:49:07;;;;;;;0.40;0.30;;;;;;;29.42;44.22;100352.81;5026133;28;20459;-56
2022/07/03 08:51:34;;;;;;;0.40;0.30;;;;;;;29.49;42.24;100351.19;5018261;28;20431;-55
2022/07/03 08:54:01;;;;;;;0.40;0.20;;;;;;;29.86;39.61;100349.09;5025913;28;20464;-56
2022/07/03 08:56:28;;;;;;;0.40;0.20;;;;;;;30.14;39.44;100350.56;5024455;28;20447;-56
2022/07/03 08:59:00;;;;;;;0.40;0.30;;;;;;;29.57;39.35;100355.84;5019297;28;20531;-56
2022/07/03 09:01:27;;;;;;;0.40;0.30;;;;;;;29.91;39.76;100354.94;5019908;28;20488;-56
2022/07/03 09:03:55;;;;;;;0.40;0.30;;;;;;;30.37;38.42;100357.13;5025786;28;20472;-56
2022/07/03 09:06:23;;;;;;;0.40;0.20;;;;;;;29.74;38.98;100340.31;5025712;28;20454;-56
2022/07/03 09:08:50;;;;;;;0.40;0.30;;;;;;;29.37;39.38;100351.63;5006365;28;20452;-56
2022/07/03 09:11:17;;;;;;;0.40;0.30;;;;;;;30.08;38.41;100343.03;5019386;28;20452;-56
2022/07/03 09:13:43;;;;;;;0.40;0.30;;;;;;;29.32;39.77;100345.75;5025340;28;20458;-56
2022/07/03 09:16:16;;;;;;;0.40;0.27;;;;;;;29.87;37.94;100340.69;5025893;28;20430;-56
2022/07/03 09:18:45;;;;;;;2.67;2.07;;;;;;;29.72;37.36;100350.59;5020736;28;21008;-56
2022/07/03 09:21:12;;;;;;;0.40;0.20;;;;;;;30.49;37.96;100345.81;5018498;28;20448;-56
2022/07/03 09:23:40;;;;;;;0.40;0.30;;;;;;;29.91;38.85;100342.09;5023663;28;20448;-56
2022/07/03 09:26:13;;;;;;;0.40;0.30;;;;;;;30.57;36.57;100340.34;5025743;28;20447;-56
2022/07/03 09:28:51;;;;;;;0.40;0.30;;;;;;;30.24;36.43;100347.66;5022109;28;20987;-56
2022/07/03 09:31:24;;;;;;;0.40;0.20;;;;;;;30.24;35.84;100351.28;5019068;28;20479;-56
2022/07/03 09:33:50;;;;;;;0.40;0.20;;;;;;;30.29;35.75;100350.75;5019668;28;20479;-56
2022/07/03 09:36:17;;;;;;;0.40;0.30;;;;;;;30.16;36.04;100347.69;5025445;28;20435;-56
2022/07/03 09:38:45;;;;;;;0.40;0.30;;;;;;;30.54;36.66;100346.13;5024591;28;20458;-56
2022/07/03 09:41:11;;;;;;;0.40;0.30;;;;;;;30.55;36.74;100348.72;5006219;28;20451;-56
2022/07/03 09:43:43;;;;;;;0.40;0.20;;;;;;;29.75;38.08;100342.91;5018728;28;20464;-56
2022/07/03 09:46:10;;;;;;;0.40;0.20;;;;;;;30.53;36.33;100333.44;5024165;28;20467;-56
2022/07/03 09:48:39;;;;;;;0.40;0.30;;;;;;;30.78;37.31;100339.81;5025554;28;20450;-56
2022/07/03 09:51:14;;;;;;;0.40;0.30;;;;;;;31.00;37.27;100341.88;5018192;28;20547;-56
2022/07/03 09:53:58;;;;;;;0.40;0.30;;;;;;;30.81;37.31;100344.97;5025638;28;20446;-56
2022/07/03 09:56:42;;;;;;;0.40;0.30;;;;;;;30.95;36.68;100342.38;5023835;28;20424;-56
2022/07/03 09:59:12;;;;;;;0.40;0.23;;;;;;;31.02;36.37;100349.91;5024367;28;20449;-56
2022/07/03 10:01:41;;;;;;;45.40;1.73;;;;;;;31.12;36.82;100343.22;5025082;28;20570;-56
2022/07/03 10:04:17;;;;;;;0.40;0.30;;;;;;;30.96;37.25;100341.34;5020188;28;20468;-56
2022/07/03 10:06:47;;;;;;;0.40;0.30;;;;;;;31.38;37.49;100339.38;5018600;28;20432;-56
2022/07/03 10:09:20;;;;;;;0.40;0.30;;;;;;;31.31;36.84;100341.13;5023021;28;20454;-56
2022/07/03 10:11:46;;;;;;;0.40;0.30;;;;;;;31.01;37.49;100337.22;5029102;28;20470;-56
2022/07/03 10:14:15;;;;;;;0.40;0.30;;;;;;;30.52;36.55;100335.34;5026718;28;20446;-56
2022/07/03 10:16:43;;;;;;;0.50;0.43;;;;;;;31.38;36.95;100340.22;5021885;28;20429;-56
2022/07/03 10:19:18;;;;;;;0.40;0.30;;;;;;;31.38;36.07;100331.13;5023731;28;20455;-56
2022/07/03 10:21:56;;;;;;;4.23;0.33;;;;;;;31.08;35.82;100330.84;5032993;28;20494;-57
2022/07/03 10:24:27;;;;;;;0.40;0.30;;;;;;;31.62;36.73;100330.16;5021909;28;20435;-56
2022/07/03 10:26:55;;;;;;;0.40;0.30;;;;;;;31.47;35.87;100325.44;5026819;28;20419;-55
2022/07/03 10:29:24;;;;;;;0.40;0.30;;;;;;;31.41;35.90;100326.16;5028578;28;20462;-55
2022/07/03 10:31:55;;;;;;;0.40;0.30;;;;;;;32.12;35.12;100327.00;5025389;28;20439;-55
2022/07/03 10:34:26;;;;;;;0.40;0.30;;;;;;;32.36;34.33;100324.09;5021540;28;20457;-55
2022/07/03 10:36:57;;;;;;;0.40;0.30;;;;;;;31.96;34.58;100327.97;5024410;28;20470;-55
2022/07/03 10:39:56;;;;;;;0.40;0.30;;;;;;;31.21;35.29;100330.31;5033524;28;20410;-55
2022/07/03 10:45:18;;;;;;;0.40;0.30;;;;;;;31.96;35.04;100327.13;5028654;28;20465;-56
2022/07/03 10:47:49;;;;;;;0.40;0.30;;;;;;;32.12;35.73;100327.00;5022679;28;20456;-55
2022/07/03 10:50:17;;;;;;;0.40;0.30;;;;;;;32.10;35.21;100329.09;5020224;28;20958;-55
2022/07/03 10:52:44;;;;;;;0.60;0.50;;;;;;;31.06;35.81;100329.31;5027142;28;20418;-55
2022/07/03 10:55:13;;;;;;;0.40;0.20;;;;;;;30.94;36.52;100317.81;5021260;28;21370;-55
2022/07/03 10:57:41;;;;;;;0.40;0.30;;;;;;;30.82;36.39;100320.06;5025925;28;21106;-55
2022/07/03 11:00:14;;;;;;;0.40;0.30;;;;;;;31.29;35.97;100321.22;5028293;28;20458;-55
2022/07/03 11:02:46;;;;;;;0.40;0.30;;;;;;;31.49;34.56;100317.00;5024588;28;21001;-55
2022/07/03 11:05:21;;;;;;;0.40;0.30;;;;;;;32.00;33.59;100317.44;5013460;28;20512;-54
2022/07/03 11:07:50;;;;;;;0.40;0.20;;;;;;;31.96;34.22;100316.97;5018857;28;20465;-55
2022/07/03 11:10:19;;;;;;;0.40;0.30;;;;;;;32.24;33.30;100299.91;5021208;28;20422;-55
2022/07/03 11:13:09;;;;;;;1.80;1.70;;;;;;;31.67;34.80;100303.03;5021692;28;20522;-55
2022/07/03 11:15:44;;;;;;;0.50;0.50;;;;;;;32.25;34.31;100301.63;5013315;28;20468;-55
2022/07/03 11:18:25;;;;;;;0.40;0.23;;;;;;;32.21;34.32;100305.78;5021010;28;20457;-56
2022/07/03 11:20:52;;;;;;;0.40;0.30;;;;;;;32.73;32.32;100303.13;5021758;28;20912;-55
2022/07/03 11:23:30;;;;;;;0.40;0.30;;;;;;;32.26;33.75;100290.44;5027758;28;20496;-55
2022/07/03 11:26:18;;;;;;;0.83;0.83;;;;;;;31.66;34.20;100287.53;5027836;28;20451;-55
2022/07/03 11:28:45;;;;;;;0.40;0.30;;;;;;;31.29;34.53;100288.25;5025034;28;20422;-55
2022/07/03 11:31:14;;;;;;;0.40;0.30;;;;;;;31.96;33.92;100288.59;5020826;28;20426;-55
2022/07/03 11:33:55;;;;;;;0.40;0.30;;;;;;;31.97;33.10;100282.06;5023198;28;20423;-55
2022/07/03 11:36:25;;;;;;;0.40;0.20;;;;;;;31.71;33.37;100280.47;5027503;28;20434;-55
2022/07/03 11:38:54;;;;;;;0.40;0.30;;;;;;;31.21;33.48;100270.75;5027516;28;20887;-55
2022/07/03 11:41:22;;;;;;;0.40;0.30;;;;;;;31.64;34.18;100267.63;5034159;28;20430;-55
2022/07/03 11:43:50;;;;;;;0.40;0.30;;;;;;;31.69;33.67;100277.06;5020368;28;20496;-55
2022/07/03 11:46:18;;;;;;;0.40;0.30;;;;;;;31.58;33.82;100265.59;5025365;28;20468;-55